createdAt,value
2022-11-30T00:00:56.788Z,85.52
2022-11-30T00:03:24.007Z,85.62
2022-11-30T00:05:51.145Z,85.36
2022-11-30T00:08:17.756Z,84.88
2022-11-30T00:10:44.892Z,84.88
2022-11-30T00:13:11.301Z,84.94
2022-11-30T00:15:38.218Z,84.78
2022-11-30T00:18:04.899Z,84.87
2022-11-30T00:20:31.363Z,85.11
2022-11-30T00:22:57.758Z,85.42
2022-11-30T00:25:25.293Z,85.48
2022-11-30T00:27:52.065Z,85.67
2022-11-30T00:30:18.613Z,85.38
2022-11-30T00:32:45.007Z,85.15
2022-11-30T00:35:11.458Z,85.41
2022-11-30T00:37:37.877Z,85.69
2022-11-30T00:40:05.917Z,85.39
2022-11-30T00:42:32.306Z,85.35
2022-11-30T00:44:58.691Z,85.57
2022-11-30T00:47:25.065Z,85.39
2022-11-30T00:49:51.534Z,85.57
2022-11-30T00:52:17.963Z,85.42
2022-11-30T00:54:44.644Z,85.07
2022-11-30T00:57:11.586Z,85.07
2022-11-30T00:59:37.987Z,85.39
2022-11-30T01:02:04.480Z,85.34
2022-11-30T01:04:31.015Z,84.87
2022-11-30T01:06:57.519Z,85.35
2022-11-30T01:09:23.929Z,85.11
2022-11-30T01:11:50.351Z,85.08
2022-11-30T01:14:16.845Z,84.77
2022-11-30T01:16:43.378Z,85.03
2022-11-30T01:19:09.863Z,84.84
2022-11-30T01:21:36.344Z,84.94
2022-11-30T01:24:02.840Z,84.19
2022-11-30T01:26:29.411Z,84.80
2022-11-30T01:28:56.331Z,84.92
2022-11-30T01:31:24.525Z,84.29
2022-11-30T01:33:55.206Z,83.93
2022-11-30T01:36:25.537Z,84.37
2022-11-30T01:38:57.385Z,84.39
2022-11-30T01:41:30.595Z,84.44
2022-11-30T01:44:20.125Z,84.77
2022-11-30T01:46:59.791Z,85.22
2022-11-30T01:49:34.761Z,84.99
2022-11-30T01:52:07.886Z,84.97
2022-11-30T01:54:46.577Z,84.64
2022-11-30T01:57:27.588Z,84.64
2022-11-30T01:59:56.913Z,84.64
2022-11-30T02:02:32.213Z,84.32
2022-11-30T02:04:59.343Z,84.99
2022-11-30T02:07:26.148Z,84.54
2022-11-30T02:09:52.679Z,84.64
2022-11-30T02:12:32.438Z,84.79
2022-11-30T02:15:08.401Z,84.79
2022-11-30T02:17:45.712Z,84.62
2022-11-30T02:20:37.346Z,84.64
2022-11-30T02:23:44.648Z,84.82
2022-11-30T02:26:38.684Z,84.99
2022-11-30T02:29:21.230Z,85.19
2022-11-30T02:32:19.236Z,84.91
2022-11-30T02:34:47.956Z,84.89
2022-11-30T02:37:16.101Z,84.94
2022-11-30T02:39:43.787Z,84.32
2022-11-30T02:42:13.040Z,83.99
2022-11-30T02:44:47.466Z,84.29
2022-11-30T02:47:22.747Z,84.22
2022-11-30T02:49:52.320Z,84.15
2022-11-30T02:52:22.326Z,84.00
2022-11-30T02:54:49.093Z,84.68
2022-11-30T02:57:15.568Z,84.54
2022-11-30T02:59:42.140Z,84.66
2022-11-30T03:02:08.639Z,84.82
2022-11-30T03:04:35.115Z,85.29
2022-11-30T03:07:01.644Z,84.81
2022-11-30T03:09:27.999Z,85.14
2022-11-30T03:11:54.428Z,84.97
2022-11-30T03:14:20.771Z,85.12
2022-11-30T03:16:47.137Z,85.00
2022-11-30T03:19:14.214Z,84.54
2022-11-30T03:21:40.576Z,84.87
2022-11-30T03:24:07.371Z,84.65
2022-11-30T03:26:33.767Z,85.06
2022-11-30T03:29:00.145Z,84.29
2022-11-30T03:31:26.585Z,83.84
2022-11-30T03:33:53.004Z,83.61
2022-11-30T03:36:19.409Z,84.07
2022-11-30T03:38:47.520Z,83.88
2022-11-30T03:41:16.412Z,83.54
2022-11-30T03:43:44.344Z,84.85
2022-11-30T03:46:11.131Z,85.15
2022-11-30T03:48:38.028Z,84.94
2022-11-30T03:51:05.563Z,84.60
2022-11-30T03:53:32.440Z,84.37
2022-11-30T03:56:02.083Z,84.40
2022-11-30T03:58:28.826Z,84.60
2022-11-30T04:01:04.083Z,84.27
2022-11-30T04:03:30.768Z,84.43
2022-11-30T04:05:58.472Z,84.70
2022-11-30T04:08:25.663Z,84.28
2022-11-30T04:10:53.853Z,84.29
2022-11-30T04:13:21.674Z,84.54
2022-11-30T04:15:49.264Z,84.69
2022-11-30T04:18:16.420Z,85.10
2022-11-30T04:20:43.011Z,84.99
2022-11-30T04:23:10.403Z,85.15
2022-11-30T04:25:41.515Z,85.22
2022-11-30T04:28:08.643Z,85.24
2022-11-30T04:30:36.363Z,85.18
2022-11-30T04:33:03.279Z,85.12
2022-11-30T04:35:29.815Z,84.91
2022-11-30T04:37:56.243Z,84.97
2022-11-30T04:40:22.665Z,85.17
2022-11-30T04:42:49.033Z,85.12
2022-11-30T04:45:15.615Z,85.71
2022-11-30T04:47:42.440Z,85.02
2022-11-30T04:50:09.279Z,85.03
2022-11-30T04:52:35.963Z,85.62
2022-11-30T04:55:04.364Z,84.57
2022-11-30T04:57:31.611Z,85.34
2022-11-30T04:59:57.978Z,85.21
2022-11-30T05:02:24.468Z,85.42
2022-11-30T05:04:51.245Z,85.53
2022-11-30T05:07:17.898Z,85.22
2022-11-30T05:09:44.404Z,85.22
2022-11-30T05:12:10.760Z,85.62
2022-11-30T05:14:37.137Z,85.72
2022-11-30T05:17:03.832Z,85.94
2022-11-30T05:19:30.220Z,85.26
2022-11-30T05:21:56.615Z,85.54
2022-11-30T05:24:23.029Z,84.95
2022-11-30T05:26:49.421Z,85.66
2022-11-30T05:29:15.792Z,85.68
2022-11-30T05:31:42.205Z,85.24
2022-11-30T05:34:08.608Z,84.68
2022-11-30T05:36:35.120Z,84.77
2022-11-30T05:39:01.609Z,84.79
2022-11-30T05:41:27.970Z,85.09
2022-11-30T05:43:54.418Z,84.76
2022-11-30T05:46:20.828Z,84.77
2022-11-30T05:48:47.269Z,85.17
2022-11-30T05:51:15.864Z,84.73
2022-11-30T05:53:43.273Z,85.23
2022-11-30T05:56:12.697Z,84.61
2022-11-30T05:58:39.817Z,84.37
2022-11-30T06:01:06.670Z,84.42
2022-11-30T06:03:34.905Z,84.96
2022-11-30T06:06:04.463Z,84.96
2022-11-30T06:08:30.806Z,84.77
2022-11-30T06:11:01.013Z,84.86
2022-11-30T06:13:28.933Z,84.77
2022-11-30T06:15:59.481Z,84.56
2022-11-30T06:18:26.069Z,84.55
2022-11-30T06:20:52.499Z,84.44
2022-11-30T06:23:18.872Z,84.95
2022-11-30T06:25:45.243Z,85.18
2022-11-30T06:28:12.016Z,85.44
2022-11-30T06:30:38.381Z,85.42
2022-11-30T06:33:04.782Z,84.92
2022-11-30T06:35:31.202Z,84.95
2022-11-30T06:37:57.627Z,85.30
2022-11-30T06:40:24.002Z,84.61
2022-11-30T06:42:50.353Z,84.77
2022-11-30T06:45:16.884Z,84.59
2022-11-30T06:47:43.229Z,84.16
2022-11-30T06:50:09.819Z,84.16
2022-11-30T06:52:36.182Z,84.44
2022-11-30T06:55:02.710Z,84.55
2022-11-30T06:57:29.832Z,83.82
2022-11-30T06:59:56.884Z,84.03
2022-11-30T07:02:23.518Z,84.53
2022-11-30T07:04:50.314Z,84.70
2022-11-30T07:07:16.823Z,85.09
2022-11-30T07:09:43.181Z,84.43
2022-11-30T07:12:09.567Z,84.50
2022-11-30T07:14:36.012Z,84.42
2022-11-30T07:17:05.253Z,84.07
2022-11-30T07:19:34.433Z,84.15
2022-11-30T07:22:01.204Z,83.79
2022-11-30T07:24:46.728Z,84.06
2022-11-30T07:27:13.231Z,84.22
2022-11-30T07:29:39.620Z,84.19
2022-11-30T07:32:06.059Z,84.15
2022-11-30T07:34:32.447Z,84.23
2022-11-30T07:36:58.801Z,83.91
2022-11-30T07:39:25.159Z,84.02
2022-11-30T07:41:51.507Z,83.39
2022-11-30T07:44:17.930Z,83.23
2022-11-30T07:46:44.474Z,83.50
2022-11-30T07:49:10.925Z,83.49
2022-11-30T07:51:37.558Z,83.40
2022-11-30T07:54:05.079Z,83.39
2022-11-30T07:56:31.564Z,82.64
2022-11-30T07:59:01.154Z,82.65
2022-11-30T08:01:30.779Z,82.87
2022-11-30T08:03:58.139Z,82.37
2022-11-30T08:06:27.256Z,81.94
2022-11-30T08:08:56.458Z,82.05
2022-11-30T08:11:26.400Z,82.27
2022-11-30T08:13:53.895Z,82.12
2022-11-30T08:16:22.960Z,81.94
2022-11-30T08:18:49.969Z,81.37
2022-11-30T08:21:19.375Z,81.43
2022-11-30T08:23:48.513Z,81.37
2022-11-30T08:26:17.820Z,80.68
2022-11-30T08:28:45.911Z,80.22
2022-11-30T08:31:21.791Z,80.18
2022-11-30T08:33:48.854Z,79.80
2022-11-30T08:36:21.856Z,79.66
2022-11-30T08:38:48.971Z,79.35
2022-11-30T08:41:19.216Z,79.76
2022-11-30T08:43:46.841Z,78.73
2022-11-30T08:46:49.119Z,78.88
2022-11-30T08:49:20.277Z,79.22
2022-11-30T08:54:37.256Z,79.09
2022-11-30T08:57:03.848Z,78.61
2022-11-30T08:59:33.160Z,78.72
2022-11-30T09:01:59.560Z,78.09
2022-11-30T09:04:25.938Z,77.90
2022-11-30T09:06:52.315Z,76.89
2022-11-30T09:09:18.673Z,76.91
2022-11-30T09:11:45.052Z,77.17
2022-11-30T09:14:11.662Z,76.45
2022-11-30T09:16:38.095Z,76.99
2022-11-30T09:19:04.463Z,75.58
2022-11-30T09:21:31.033Z,76.77
2022-11-30T09:23:57.872Z,76.53
2022-11-30T09:26:27.217Z,76.48
2022-11-30T09:28:54.678Z,76.69
2022-11-30T09:31:24.032Z,76.48
2022-11-30T09:33:51.098Z,76.72
2022-11-30T09:36:20.128Z,76.09
2022-11-30T09:38:47.059Z,75.52
2022-11-30T09:41:38.740Z,75.55
2022-11-30T09:44:17.060Z,74.97
2022-11-30T09:46:52.716Z,75.42
2022-11-30T09:49:24.507Z,75.89
2022-11-30T09:51:54.267Z,75.27
2022-11-30T09:54:42.022Z,74.62
2022-11-30T09:57:17.321Z,73.32
2022-11-30T09:59:51.872Z,72.57
2022-11-30T10:02:18.561Z,73.54
2022-11-30T10:04:45.800Z,72.09
2022-11-30T10:07:27.426Z,72.22
2022-11-30T10:10:58.563Z,71.98
2022-11-30T10:13:35.575Z,71.37
2022-11-30T10:16:16.515Z,68.93
2022-11-30T10:19:00.496Z,68.40
2022-11-30T10:22:01.816Z,68.44
2022-11-30T10:24:56.169Z,68.26
2022-11-30T10:27:48.753Z,67.89
2022-11-30T10:30:22.475Z,67.58
2022-11-30T10:32:54.433Z,68.34
2022-11-30T10:35:41.327Z,68.29
2022-11-30T10:38:23.907Z,67.16
2022-11-30T10:40:56.268Z,68.25
2022-11-30T10:43:38.340Z,68.95
2022-11-30T10:46:05.363Z,68.30
2022-11-30T10:48:40.414Z,68.24
2022-11-30T10:51:07.989Z,68.26
2022-11-30T10:53:34.670Z,70.44
2022-11-30T10:56:10.893Z,69.69
2022-11-30T10:59:04.393Z,69.82
2022-11-30T11:01:39.279Z,69.60
2022-11-30T11:04:22.740Z,67.92
2022-11-30T11:06:53.581Z,69.16
2022-11-30T11:09:49.173Z,70.21
2022-11-30T11:12:24.543Z,71.17
2022-11-30T11:15:19.835Z,71.41
2022-11-30T11:17:47.102Z,70.76
2022-11-30T11:20:28.861Z,71.29
2022-11-30T11:22:55.535Z,71.50
2022-11-30T11:25:29.016Z,72.19
2022-11-30T11:28:08.774Z,72.09
2022-11-30T11:30:37.304Z,73.07
2022-11-30T11:33:12.784Z,74.17
2022-11-30T11:35:46.188Z,73.84
2022-11-30T11:38:52.159Z,73.93
2022-11-30T11:41:24.575Z,73.58
2022-11-30T11:44:03.169Z,73.72
2022-11-30T11:46:36.611Z,74.12
2022-11-30T11:49:25.987Z,74.24
2022-11-30T11:52:04.761Z,74.13
2022-11-30T11:54:46.698Z,75.47
2022-11-30T11:57:16.124Z,75.61
2022-11-30T11:59:54.961Z,75.92
2022-11-30T12:02:57.521Z,76.03
2022-11-30T12:05:31.668Z,75.99
2022-11-30T12:08:13.401Z,76.25
2022-11-30T12:10:52.821Z,76.33
2022-11-30T12:13:22.666Z,76.42
2022-11-30T12:16:15.043Z,76.72
2022-11-30T12:19:12.830Z,78.08
2022-11-30T12:21:54.523Z,78.29
2022-11-30T12:25:01.351Z,78.92
2022-11-30T12:27:53.798Z,78.62
2022-11-30T12:30:32.088Z,79.47
2022-11-30T12:33:07.477Z,78.22
2022-11-30T12:36:02.110Z,78.89
2022-11-30T12:38:59.487Z,79.40
2022-11-30T12:41:58.428Z,79.74
2022-11-30T12:45:09.312Z,80.14
2022-11-30T12:48:04.573Z,80.06
2022-11-30T12:50:46.559Z,80.87
2022-11-30T12:53:28.109Z,81.34
2022-11-30T12:56:23.179Z,81.94
2022-11-30T12:59:17.390Z,81.84
2022-11-30T13:02:12.604Z,81.54
2022-11-30T13:05:03.903Z,80.12
2022-11-30T13:07:38.218Z,80.34
2022-11-30T13:10:08.630Z,80.79
2022-11-30T13:12:37.804Z,80.37
2022-11-30T13:15:17.537Z,80.10
2022-11-30T13:17:45.556Z,80.81
2022-11-30T13:21:03.229Z,80.79
2022-11-30T13:23:37.011Z,81.51
2022-11-30T13:26:27.207Z,81.79
2022-11-30T13:29:28.913Z,82.38
2022-11-30T13:32:05.314Z,83.40
2022-11-30T13:34:32.802Z,82.97
2022-11-30T13:37:12.605Z,83.54
2022-11-30T13:39:53.522Z,83.86
2022-11-30T13:42:50.256Z,83.29
2022-11-30T13:45:25.700Z,83.82
2022-11-30T13:47:54.705Z,83.86
2022-11-30T13:50:34.523Z,83.83
2022-11-30T13:53:01.601Z,83.70
2022-11-30T13:55:43.354Z,84.05
2022-11-30T13:58:11.497Z,83.68
2022-11-30T14:00:37.865Z,82.96
2022-11-30T14:03:22.568Z,81.90
2022-11-30T14:06:39.553Z,82.57
2022-11-30T14:09:35.756Z,83.26
2022-11-30T14:12:44.355Z,82.98
2022-11-30T14:15:39.423Z,83.02
2022-11-30T14:18:08.780Z,83.12
2022-11-30T14:20:48.668Z,83.45
2022-11-30T14:23:55.309Z,83.52
2022-11-30T14:26:30.368Z,84.11
2022-11-30T14:29:19.780Z,84.40
2022-11-30T14:32:20.955Z,84.98
2022-11-30T14:34:54.465Z,85.47
2022-11-30T14:37:27.781Z,85.40
2022-11-30T14:39:56.615Z,85.02
2022-11-30T14:42:28.864Z,84.83
2022-11-30T14:44:56.192Z,84.81
2022-11-30T14:47:33.113Z,84.44
2022-11-30T14:50:05.813Z,84.08
2022-11-30T14:53:14.871Z,84.09
2022-11-30T14:56:08.173Z,84.59
2022-11-30T14:58:47.664Z,84.02
2022-11-30T15:01:20.965Z,84.19
2022-11-30T15:03:49.541Z,84.12
2022-11-30T15:06:21.968Z,83.80
2022-11-30T15:08:54.987Z,84.64
2022-11-30T15:11:21.822Z,84.10
2022-11-30T15:13:50.805Z,84.59
2022-11-30T15:16:30.462Z,84.83
2022-11-30T15:18:58.911Z,85.02
2022-11-30T15:21:29.337Z,85.05
2022-11-30T15:23:58.983Z,84.62
2022-11-30T15:26:48.752Z,84.38
2022-11-30T15:29:21.866Z,84.29
2022-11-30T15:31:51.661Z,83.59
2022-11-30T15:34:42.374Z,83.70
2022-11-30T15:37:08.829Z,84.17
2022-11-30T15:39:35.426Z,83.93
2022-11-30T15:42:04.196Z,83.92
2022-11-30T15:44:44.061Z,84.52
2022-11-30T15:47:34.906Z,84.49
2022-11-30T15:50:01.555Z,84.54
2022-11-30T15:52:30.135Z,84.64
2022-11-30T15:54:59.624Z,83.94
2022-11-30T15:57:27.564Z,84.02
2022-11-30T16:00:08.257Z,84.47
2022-11-30T16:02:37.119Z,84.14
2022-11-30T16:05:25.083Z,84.12
2022-11-30T16:07:59.350Z,84.51
2022-11-30T16:10:29.829Z,84.64
2022-11-30T16:12:56.237Z,84.29
2022-11-30T16:15:26.278Z,84.04
2022-11-30T16:18:09.548Z,84.06
2022-11-30T16:20:36.003Z,83.69
2022-11-30T16:23:05.817Z,84.05
2022-11-30T16:25:32.597Z,83.85
2022-11-30T16:27:58.960Z,84.54
2022-11-30T16:30:25.316Z,83.87
2022-11-30T16:32:51.676Z,83.77
2022-11-30T16:35:24.419Z,84.64
2022-11-30T16:37:51.374Z,84.01
2022-11-30T16:40:18.813Z,84.24
2022-11-30T16:42:45.423Z,84.50
2022-11-30T16:45:18.963Z,84.17
2022-11-30T16:47:45.350Z,83.73
2022-11-30T16:50:13.074Z,83.97
2022-11-30T16:52:40.137Z,84.27
2022-11-30T16:55:17.555Z,84.30
2022-11-30T16:57:44.189Z,84.54
2022-11-30T17:00:13.173Z,84.83
2022-11-30T17:02:44.799Z,84.45
2022-11-30T17:05:13.750Z,85.27
2022-11-30T17:07:40.218Z,85.16
2022-11-30T17:10:07.120Z,85.29
2022-11-30T17:12:35.471Z,85.26
2022-11-30T17:15:02.627Z,85.09
2022-11-30T17:17:29.016Z,85.07
2022-11-30T17:19:55.424Z,84.62
2022-11-30T17:22:22.032Z,84.24
2022-11-30T17:24:48.663Z,84.37
2022-11-30T17:27:15.212Z,83.94
2022-11-30T17:29:43.095Z,84.49
2022-11-30T17:32:09.488Z,83.99
2022-11-30T17:34:35.964Z,84.26
2022-11-30T17:37:02.329Z,83.57
2022-11-30T17:39:28.714Z,84.28
2022-11-30T17:41:55.141Z,83.42
2022-11-30T17:44:21.503Z,84.20
2022-11-30T17:46:48.480Z,84.16
2022-11-30T17:49:15.173Z,84.40
2022-11-30T17:51:41.547Z,84.45
2022-11-30T17:54:07.984Z,84.41
2022-11-30T17:56:35.813Z,83.70
2022-11-30T17:59:02.332Z,83.89
2022-11-30T18:01:28.835Z,84.34
2022-11-30T18:03:55.604Z,85.01
2022-11-30T18:06:22.223Z,84.87
2022-11-30T18:08:48.898Z,85.37
2022-11-30T18:11:18.895Z,85.70
2022-11-30T18:13:45.618Z,85.62
2022-11-30T18:16:14.949Z,85.84
2022-11-30T18:18:47.443Z,86.60
2022-11-30T18:21:17.810Z,86.23
2022-11-30T18:23:44.260Z,86.14
2022-11-30T18:26:13.414Z,86.52
2022-11-30T18:28:39.879Z,86.98
2022-11-30T18:31:06.712Z,87.14
2022-11-30T18:33:34.420Z,87.15
2022-11-30T18:36:01.219Z,86.95
2022-11-30T18:38:32.874Z,86.57
2022-11-30T18:41:04.178Z,85.90
2022-11-30T18:43:31.692Z,86.84
2022-11-30T18:46:03.582Z,86.39
2022-11-30T18:48:30.046Z,86.63
2022-11-30T18:50:56.513Z,86.32
2022-11-30T18:53:22.878Z,86.20
2022-11-30T18:55:49.273Z,86.62
2022-11-30T18:58:15.678Z,86.19
2022-11-30T19:00:42.104Z,85.89
2022-11-30T19:03:08.583Z,86.69
2022-11-30T19:05:38.172Z,86.62
2022-11-30T19:08:08.242Z,86.92
2022-11-30T19:10:36.183Z,86.33
2022-11-30T19:13:04.061Z,86.64
2022-11-30T19:15:41.189Z,86.51
2022-11-30T19:18:10.668Z,87.01
2022-11-30T19:20:39.126Z,86.27
2022-11-30T19:23:05.668Z,85.98
2022-11-30T19:25:32.378Z,85.85
2022-11-30T19:27:58.758Z,86.57
2022-11-30T19:30:26.288Z,85.93
2022-11-30T19:32:53.618Z,86.44
2022-11-30T19:35:20.743Z,85.99
2022-11-30T19:37:47.123Z,86.19
2022-11-30T19:40:13.570Z,86.05
2022-11-30T19:42:39.978Z,85.32
2022-11-30T19:45:06.962Z,85.47
2022-11-30T19:47:33.366Z,86.46
2022-11-30T19:49:59.752Z,86.15
2022-11-30T19:52:26.133Z,87.01
2022-11-30T19:54:52.492Z,87.35
2022-11-30T19:57:18.867Z,87.09
2022-11-30T19:59:46.204Z,87.77
2022-11-30T20:02:12.637Z,87.91
2022-11-30T20:04:39.809Z,87.53
2022-11-30T20:07:06.167Z,87.17
2022-11-30T20:09:32.909Z,86.76
2022-11-30T20:11:59.272Z,86.52
2022-11-30T20:14:25.647Z,86.09
2022-11-30T20:16:52.970Z,86.17
2022-11-30T20:19:19.368Z,86.77
2022-11-30T20:21:45.983Z,87.27
2022-11-30T20:24:12.356Z,87.44
2022-11-30T20:26:41.311Z,87.20
2022-11-30T20:29:12.451Z,87.07
2022-11-30T20:31:39.279Z,86.56
2022-11-30T20:34:08.015Z,87.05
2022-11-30T20:36:35.365Z,86.60
2022-11-30T20:39:02.881Z,87.16
2022-11-30T20:41:29.513Z,87.88
2022-11-30T20:43:56.228Z,87.59
2022-11-30T20:46:25.604Z,87.97
2022-11-30T20:48:52.159Z,87.91
2022-11-30T20:51:32.138Z,87.52
2022-11-30T20:54:01.458Z,87.00
2022-11-30T20:56:27.918Z,86.89
2022-11-30T20:58:54.329Z,87.49
2022-11-30T21:01:22.576Z,87.07
2022-11-30T21:03:49.510Z,87.40
2022-11-30T21:06:16.396Z,87.37
2022-11-30T21:08:43.300Z,87.11
2022-11-30T21:11:12.654Z,87.16
2022-11-30T21:13:40.321Z,87.88
2022-11-30T21:16:07.289Z,88.09
2022-11-30T21:18:34.983Z,88.03
2022-11-30T21:21:06.892Z,87.50
2022-11-30T21:23:33.425Z,87.49
2022-11-30T21:26:13.640Z,86.89
2022-11-30T21:28:40.048Z,87.07
2022-11-30T21:31:06.529Z,86.92
2022-11-30T21:33:33.018Z,87.38
2022-11-30T21:35:59.413Z,86.84
2022-11-30T21:38:25.778Z,87.57
2022-11-30T21:41:00.027Z,86.77
2022-11-30T21:43:28.275Z,87.22
2022-11-30T21:46:04.180Z,86.62
2022-11-30T21:48:32.819Z,86.44
2022-11-30T21:51:00.992Z,86.41
2022-11-30T21:53:28.738Z,86.38
2022-11-30T21:55:56.029Z,86.48
2022-11-30T21:58:22.964Z,86.79
2022-11-30T22:00:56.936Z,86.92
2022-11-30T22:03:23.588Z,86.58
2022-11-30T22:06:00.161Z,87.00
2022-11-30T22:08:27.310Z,86.82
2022-11-30T22:10:53.702Z,87.24
2022-11-30T22:13:20.658Z,86.96
2022-11-30T22:15:47.099Z,87.27
2022-11-30T22:18:13.507Z,86.59
2022-11-30T22:20:39.857Z,86.82
2022-11-30T22:23:06.247Z,87.06
2022-11-30T22:25:32.628Z,86.64
2022-11-30T22:27:59.003Z,86.23
2022-11-30T22:30:25.378Z,86.53
2022-11-30T22:32:51.920Z,86.29
2022-11-30T22:35:18.305Z,86.66
2022-11-30T22:37:44.675Z,86.45
2022-11-30T22:40:11.764Z,86.33
2022-11-30T22:42:38.153Z,86.37
2022-11-30T22:45:05.285Z,86.34
2022-11-30T22:47:31.649Z,86.73
2022-11-30T22:49:58.456Z,86.31
2022-11-30T22:52:42.266Z,86.19
2022-11-30T22:55:11.388Z,85.99
2022-11-30T22:57:37.968Z,86.31
2022-11-30T23:00:05.310Z,86.29
2022-11-30T23:02:31.730Z,86.50
2022-11-30T23:04:58.128Z,86.46
2022-11-30T23:07:28.932Z,86.57
2022-11-30T23:09:58.361Z,86.17
2022-11-30T23:12:43.333Z,85.81
2022-11-30T23:15:11.239Z,85.67
2022-11-30T23:17:37.599Z,85.58
2022-11-30T23:20:04.523Z,86.30
2022-11-30T23:22:30.899Z,85.88
2022-11-30T23:24:57.291Z,85.32
2022-11-30T23:27:23.659Z,85.06
2022-11-30T23:29:50.248Z,84.79
2022-11-30T23:32:16.782Z,85.12
2022-11-30T23:34:46.871Z,85.60
2022-11-30T23:37:15.734Z,85.73
2022-11-30T23:39:42.183Z,85.42
2022-11-30T23:42:08.541Z,85.73
2022-11-30T23:44:34.907Z,86.45
2022-11-30T23:47:01.283Z,86.38
2022-11-30T23:49:27.746Z,86.42
2022-11-30T23:51:54.123Z,86.21
2022-11-30T23:54:20.594Z,86.17
2022-11-30T23:56:47.002Z,87.29
2022-11-30T23:59:13.375Z,86.34
